sensor_id;sensor_type;location;lat;lon;timestamp;pressure;altitude;pressure_sealevel;temperature
69007;BMP180;56061;51.748;19.620;2023-04-01T00:01:23;97014.20;;;10.10
69007;BMP180;56061;51.748;19.620;2023-04-01T00:03:49;97014.60;;;10.10
69007;BMP180;56061;51.748;19.620;2023-04-01T00:06:18;97016.00;;;10.10
69007;BMP180;56061;51.748;19.620;2023-04-01T00:08:45;97013.00;;;10.10
69007;BMP180;56061;51.748;19.620;2023-04-01T00:11:13;97016.00;;;10.10
69007;BMP180;56061;51.748;19.620;2023-04-01T00:13:41;97011.20;;;10.10
69007;BMP180;56061;51.748;19.620;2023-04-01T00:16:08;97014.40;;;10.10
69007;BMP180;56061;51.748;19.620;2023-04-01T00:18:49;97007.80;;;10.10
69007;BMP180;56061;51.748;19.620;2023-04-01T00:21:17;97009.00;;;10.10
69007;BMP180;56061;51.748;19.620;2023-04-01T00:23:43;97010.40;;;10.10
69007;BMP180;56061;51.748;19.620;2023-04-01T00:26:10;97014.20;;;10.10
69007;BMP180;56061;51.748;19.620;2023-04-01T00:28:38;97015.20;;;10.06
69007;BMP180;56061;51.748;19.620;2023-04-01T00:31:07;97019.00;;;10.08
69007;BMP180;56061;51.748;19.620;2023-04-01T00:33:35;97020.00;;;10.10
69007;BMP180;56061;51.748;19.620;2023-04-01T00:36:17;97021.60;;;10.06
69007;BMP180;56061;51.748;19.620;2023-04-01T00:38:45;97021.40;;;10.08
69007;BMP180;56061;51.748;19.620;2023-04-01T00:41:19;97025.20;;;10.10
69007;BMP180;56061;51.748;19.620;2023-04-01T00:43:50;97026.20;;;10.10
69007;BMP180;56061;51.748;19.620;2023-04-01T00:46:18;97023.00;;;10.10
69007;BMP180;56061;51.748;19.620;2023-04-01T00:48:52;97027.60;;;10.00
69007;BMP180;56061;51.748;19.620;2023-04-01T00:51:24;97018.80;;;10.00
69007;BMP180;56061;51.748;19.620;2023-04-01T00:53:54;97017.20;;;10.00
69007;BMP180;56061;51.748;19.620;2023-04-01T00:56:33;97013.40;;;10.00
69007;BMP180;56061;51.748;19.620;2023-04-01T00:59:07;97013.40;;;10.00
69007;BMP180;56061;51.748;19.620;2023-04-01T01:01:35;97012.60;;;10.00
69007;BMP180;56061;51.748;19.620;2023-04-01T01:04:03;97007.80;;;10.00
69007;BMP180;56061;51.748;19.620;2023-04-01T01:09:29;97004.00;;;10.00
69007;BMP180;56061;51.748;19.620;2023-04-01T01:12:17;96991.20;;;9.90
69007;BMP180;56061;51.748;19.620;2023-04-01T01:15:12;96987.40;;;9.90
69007;BMP180;56061;51.748;19.620;2023-04-01T01:18:03;96985.80;;;9.82
69007;BMP180;56061;51.748;19.620;2023-04-01T01:27:16;96977.80;;;9.80
69007;BMP180;56061;51.748;19.620;2023-04-01T01:30:15;96985.00;;;9.80
69007;BMP180;56061;51.748;19.620;2023-04-01T01:33:11;96987.20;;;9.80
69007;BMP180;56061;51.748;19.620;2023-04-01T01:35:55;96992.40;;;9.84
69007;BMP180;56061;51.748;19.620;2023-04-01T01:38:27;96997.60;;;9.82
69007;BMP180;56061;51.748;19.620;2023-04-01T01:40:56;96993.20;;;9.80
69007;BMP180;56061;51.748;19.620;2023-04-01T01:43:30;96988.60;;;9.80
69007;BMP180;56061;51.748;19.620;2023-04-01T01:46:02;96986.20;;;9.80
69007;BMP180;56061;51.748;19.620;2023-04-01T01:48:34;96987.80;;;9.80
69007;BMP180;56061;51.748;19.620;2023-04-01T01:51:05;96983.40;;;9.80
69007;BMP180;56061;51.748;19.620;2023-04-01T01:53:32;96989.40;;;9.80
69007;BMP180;56061;51.748;19.620;2023-04-01T01:55:58;96988.00;;;9.74
69007;BMP180;56061;51.748;19.620;2023-04-01T01:58:32;96984.60;;;9.76
69007;BMP180;56061;51.748;19.620;2023-04-01T02:01:13;96985.20;;;9.80
69007;BMP180;56061;51.748;19.620;2023-04-01T02:03:43;96991.60;;;9.80
69007;BMP180;56061;51.748;19.620;2023-04-01T02:06:15;96986.60;;;9.80
69007;BMP180;56061;51.748;19.620;2023-04-01T02:09:00;96990.00;;;9.70
69007;BMP180;56061;51.748;19.620;2023-04-01T02:11:42;96985.20;;;9.70
69007;BMP180;56061;51.748;19.620;2023-04-01T02:14:15;96988.40;;;9.70
69007;BMP180;56061;51.748;19.620;2023-04-01T02:16:53;96986.60;;;9.70
69007;BMP180;56061;51.748;19.620;2023-04-01T02:19:27;96987.40;;;9.70
69007;BMP180;56061;51.748;19.620;2023-04-01T02:22:03;96983.20;;;9.70
69007;BMP180;56061;51.748;19.620;2023-04-01T02:24:33;96990.40;;;9.70
69007;BMP180;56061;51.748;19.620;2023-04-01T02:27:02;96989.80;;;9.70
69007;BMP180;56061;51.748;19.620;2023-04-01T02:29:29;96985.20;;;9.70
69007;BMP180;56061;51.748;19.620;2023-04-01T02:31:56;96989.20;;;9.60
69007;BMP180;56061;51.748;19.620;2023-04-01T02:34:24;96994.00;;;9.60
69007;BMP180;56061;51.748;19.620;2023-04-01T02:36:52;96995.60;;;9.60
69007;BMP180;56061;51.748;19.620;2023-04-01T02:39:20;96996.60;;;9.60
69007;BMP180;56061;51.748;19.620;2023-04-01T02:41:47;96993.80;;;9.60
69007;BMP180;56061;51.748;19.620;2023-04-01T02:44:15;96995.40;;;9.60
69007;BMP180;56061;51.748;19.620;2023-04-01T02:46:42;96991.40;;;9.60
69007;BMP180;56061;51.748;19.620;2023-04-01T02:49:08;96994.20;;;9.60
69007;BMP180;56061;51.748;19.620;2023-04-01T02:51:35;96988.60;;;9.56
69007;BMP180;56061;51.748;19.620;2023-04-01T02:54:02;96995.00;;;9.52
69007;BMP180;56061;51.748;19.620;2023-04-01T02:56:28;96999.20;;;9.50
69007;BMP180;56061;51.748;19.620;2023-04-01T02:58:55;97000.00;;;9.50
69007;BMP180;56061;51.748;19.620;2023-04-01T03:01:22;96999.80;;;9.50
69007;BMP180;56061;51.748;19.620;2023-04-01T03:03:49;97002.00;;;9.42
69007;BMP180;56061;51.748;19.620;2023-04-01T03:06:17;97008.80;;;9.40
69007;BMP180;56061;51.748;19.620;2023-04-01T03:08:44;97009.60;;;9.50
69007;BMP180;56061;51.748;19.620;2023-04-01T03:11:11;97006.80;;;9.50
69007;BMP180;56061;51.748;19.620;2023-04-01T03:13:38;97005.00;;;9.50
69007;BMP180;56061;51.748;19.620;2023-04-01T03:16:04;97005.20;;;9.50
69007;BMP180;56061;51.748;19.620;2023-04-01T03:18:31;97006.60;;;9.50
69007;BMP180;56061;51.748;19.620;2023-04-01T03:21:13;97011.20;;;9.50
69007;BMP180;56061;51.748;19.620;2023-04-01T03:23:40;97006.20;;;9.50
69007;BMP180;56061;51.748;19.620;2023-04-01T03:26:07;97010.40;;;9.42
69007;BMP180;56061;51.748;19.620;2023-04-01T03:28:34;97007.80;;;9.40
69007;BMP180;56061;51.748;19.620;2023-04-01T03:31:00;97010.00;;;9.40
69007;BMP180;56061;51.748;19.620;2023-04-01T03:33:27;97008.00;;;9.40
69007;BMP180;56061;51.748;19.620;2023-04-01T03:35:53;97006.20;;;9.50
69007;BMP180;56061;51.748;19.620;2023-04-01T03:38:20;97007.20;;;9.50
69007;BMP180;56061;51.748;19.620;2023-04-01T03:40:46;97012.60;;;9.50
69007;BMP180;56061;51.748;19.620;2023-04-01T03:43:13;97017.60;;;9.50
69007;BMP180;56061;51.748;19.620;2023-04-01T03:45:51;97016.60;;;9.50
69007;BMP180;56061;51.748;19.620;2023-04-01T03:48:17;97016.40;;;9.48
69007;BMP180;56061;51.748;19.620;2023-04-01T03:50:45;97016.00;;;9.40
69007;BMP180;56061;51.748;19.620;2023-04-01T03:53:11;97015.20;;;9.40
69007;BMP180;56061;51.748;19.620;2023-04-01T03:55:38;97018.20;;;9.40
69007;BMP180;56061;51.748;19.620;2023-04-01T03:58:06;97021.20;;;9.40
69007;BMP180;56061;51.748;19.620;2023-04-01T04:00:33;97023.00;;;9.32
69007;BMP180;56061;51.748;19.620;2023-04-01T04:03:00;97023.00;;;9.30
69007;BMP180;56061;51.748;19.620;2023-04-01T04:05:27;97030.60;;;9.30
69007;BMP180;56061;51.748;19.620;2023-04-01T04:07:54;97036.60;;;9.30
69007;BMP180;56061;51.748;19.620;2023-04-01T04:10:21;97041.80;;;9.30
69007;BMP180;56061;51.748;19.620;2023-04-01T04:12:49;97043.60;;;9.30
69007;BMP180;56061;51.748;19.620;2023-04-01T04:15:16;97044.80;;;9.20
69007;BMP180;56061;51.748;19.620;2023-04-01T04:17:44;97045.00;;;9.20
69007;BMP180;56061;51.748;19.620;2023-04-01T04:20:11;97043.60;;;9.10
69007;BMP180;56061;51.748;19.620;2023-04-01T04:22:38;97048.20;;;9.10
69007;BMP180;56061;51.748;19.620;2023-04-01T04:25:05;97051.00;;;9.10
69007;BMP180;56061;51.748;19.620;2023-04-01T04:27:33;97050.60;;;9.10
69007;BMP180;56061;51.748;19.620;2023-04-01T04:30:00;97050.60;;;9.10
69007;BMP180;56061;51.748;19.620;2023-04-01T04:32:26;97051.40;;;9.14
69007;BMP180;56061;51.748;19.620;2023-04-01T04:34:55;97048.20;;;9.12
69007;BMP180;56061;51.748;19.620;2023-04-01T04:37:21;97043.80;;;9.10
69007;BMP180;56061;51.748;19.620;2023-04-01T04:39:48;97043.00;;;9.10
69007;BMP180;56061;51.748;19.620;2023-04-01T04:42:14;97046.20;;;9.02
69007;BMP180;56061;51.748;19.620;2023-04-01T04:44:40;97046.80;;;9.00
69007;BMP180;56061;51.748;19.620;2023-04-01T04:47:07;97041.20;;;9.00
69007;BMP180;56061;51.748;19.620;2023-04-01T04:49:33;97037.40;;;9.00
69007;BMP180;56061;51.748;19.620;2023-04-01T04:52:00;97042.60;;;9.02
69007;BMP180;56061;51.748;19.620;2023-04-01T04:54:26;97042.20;;;9.00
69007;BMP180;56061;51.748;19.620;2023-04-01T04:56:53;97046.80;;;9.02
69007;BMP180;56061;51.748;19.620;2023-04-01T04:59:20;97045.80;;;9.00
69007;BMP180;56061;51.748;19.620;2023-04-01T05:01:47;97047.60;;;9.00
69007;BMP180;56061;51.748;19.620;2023-04-01T05:04:13;97048.80;;;9.00
69007;BMP180;56061;51.748;19.620;2023-04-01T05:06:40;97043.00;;;9.02
69007;BMP180;56061;51.748;19.620;2023-04-01T05:09:06;97034.40;;;9.04
69007;BMP180;56061;51.748;19.620;2023-04-01T05:11:32;97035.00;;;9.10
69007;BMP180;56061;51.748;19.620;2023-04-01T05:13:59;97033.40;;;9.10
69007;BMP180;56061;51.748;19.620;2023-04-01T05:16:25;97034.80;;;9.20
69007;BMP180;56061;51.748;19.620;2023-04-01T05:18:52;97036.20;;;9.20
69007;BMP180;56061;51.748;19.620;2023-04-01T05:21:19;97034.80;;;9.20
69007;BMP180;56061;51.748;19.620;2023-04-01T05:23:45;97039.80;;;9.20
69007;BMP180;56061;51.748;19.620;2023-04-01T05:26:14;97041.40;;;9.20
69007;BMP180;56061;51.748;19.620;2023-04-01T05:28:41;97039.80;;;9.20
69007;BMP180;56061;51.748;19.620;2023-04-01T05:31:08;97040.20;;;9.20
69007;BMP180;56061;51.748;19.620;2023-04-01T05:33:35;97038.80;;;9.20
69007;BMP180;56061;51.748;19.620;2023-04-01T05:36:15;97039.80;;;9.30
69007;BMP180;56061;51.748;19.620;2023-04-01T05:38:43;97039.80;;;9.40
69007;BMP180;56061;51.748;19.620;2023-04-01T05:41:13;97040.60;;;9.40
69007;BMP180;56061;51.748;19.620;2023-04-01T05:43:41;97038.00;;;9.50
69007;BMP180;56061;51.748;19.620;2023-04-01T05:46:08;97038.80;;;9.50
69007;BMP180;56061;51.748;19.620;2023-04-01T05:48:34;97040.20;;;9.62
69007;BMP180;56061;51.748;19.620;2023-04-01T05:51:02;97036.40;;;9.80
69007;BMP180;56061;51.748;19.620;2023-04-01T05:53:30;97035.80;;;9.90
69007;BMP180;56061;51.748;19.620;2023-04-01T05:55:56;97041.60;;;10.00
69007;BMP180;56061;51.748;19.620;2023-04-01T05:58:22;97041.00;;;10.10
69007;BMP180;56061;51.748;19.620;2023-04-01T06:00:49;97040.60;;;10.12
69007;BMP180;56061;51.748;19.620;2023-04-01T06:03:33;97040.80;;;10.20
69007;BMP180;56061;51.748;19.620;2023-04-01T06:06:00;97042.20;;;10.20
69007;BMP180;56061;51.748;19.620;2023-04-01T06:08:31;97042.40;;;10.10
69007;BMP180;56061;51.748;19.620;2023-04-01T06:16:56;97040.00;;;10.10
69007;BMP180;56061;51.748;19.620;2023-04-01T06:19:57;97038.00;;;10.10
69007;BMP180;56061;51.748;19.620;2023-04-01T06:25:29;97039.40;;;10.26
69007;BMP180;56061;51.748;19.620;2023-04-01T06:31:36;97046.20;;;10.50
69007;BMP180;56061;51.748;19.620;2023-04-01T06:40:50;97049.20;;;10.60
69007;BMP180;56061;51.748;19.620;2023-04-01T06:43:37;97050.80;;;10.60
69007;BMP180;56061;51.748;19.620;2023-04-01T06:46:27;97046.20;;;10.64
69007;BMP180;56061;51.748;19.620;2023-04-01T06:49:24;97050.20;;;10.60
69007;BMP180;56061;51.748;19.620;2023-04-01T06:52:26;97051.60;;;10.60
69007;BMP180;56061;51.748;19.620;2023-04-01T06:55:12;97050.40;;;10.68
69007;BMP180;56061;51.748;19.620;2023-04-01T06:57:47;97046.60;;;10.70
69007;BMP180;56061;51.748;19.620;2023-04-01T07:00:32;97052.80;;;10.82
69007;BMP180;56061;51.748;19.620;2023-04-01T07:03:26;97051.20;;;10.90
69007;BMP180;56061;51.748;19.620;2023-04-01T07:06:02;97052.60;;;11.00
69007;BMP180;56061;51.748;19.620;2023-04-01T07:08:35;97053.40;;;11.04
69007;BMP180;56061;51.748;19.620;2023-04-01T07:11:10;97055.60;;;11.18
69007;BMP180;56061;51.748;19.620;2023-04-01T07:13:58;97047.60;;;11.30
69007;BMP180;56061;51.748;19.620;2023-04-01T07:19:22;97054.80;;;11.40
69007;BMP180;56061;51.748;19.620;2023-04-01T07:22:04;97052.60;;;11.40
69007;BMP180;56061;51.748;19.620;2023-04-01T07:24:39;97057.00;;;11.40
69007;BMP180;56061;51.748;19.620;2023-04-01T07:27:13;97052.60;;;11.50
69007;BMP180;56061;51.748;19.620;2023-04-01T07:29:40;97055.40;;;11.50
69007;BMP180;56061;51.748;19.620;2023-04-01T07:35:20;97061.60;;;11.40
69007;BMP180;56061;51.748;19.620;2023-04-01T07:38:22;97061.20;;;11.40
69007;BMP180;56061;51.748;19.620;2023-04-01T07:41:14;97063.80;;;11.40
69007;BMP180;56061;51.748;19.620;2023-04-01T07:46:58;97064.60;;;11.42
69007;BMP180;56061;51.748;19.620;2023-04-01T07:50:04;97064.00;;;11.50
69007;BMP180;56061;51.748;19.620;2023-04-01T07:52:51;97058.00;;;11.58
69007;BMP180;56061;51.748;19.620;2023-04-01T07:55:34;97062.00;;;11.68
69007;BMP180;56061;51.748;19.620;2023-04-01T08:01:08;97064.20;;;11.80
69007;BMP180;56061;51.748;19.620;2023-04-01T08:10:25;97071.60;;;11.74
69007;BMP180;56061;51.748;19.620;2023-04-01T08:13:14;97067.40;;;11.90
69007;BMP180;56061;51.748;19.620;2023-04-01T08:16:02;97066.40;;;12.00
69007;BMP180;56061;51.748;19.620;2023-04-01T08:18:54;97067.80;;;12.12
69007;BMP180;56061;51.748;19.620;2023-04-01T08:21:47;97068.60;;;12.30
69007;BMP180;56061;51.748;19.620;2023-04-01T08:24:35;97069.60;;;12.50
69007;BMP180;56061;51.748;19.620;2023-04-01T08:27:23;97073.40;;;12.60
69007;BMP180;56061;51.748;19.620;2023-04-01T08:29:59;97069.40;;;12.70
69007;BMP180;56061;51.748;19.620;2023-04-01T08:32:37;97070.20;;;12.90
69007;BMP180;56061;51.748;19.620;2023-04-01T08:38:54;97066.20;;;13.20
69007;BMP180;56061;51.748;19.620;2023-04-01T08:42:06;97066.20;;;13.10
69007;BMP180;56061;51.748;19.620;2023-04-01T08:45:11;97062.80;;;13.00
69007;BMP180;56061;51.748;19.620;2023-04-01T08:47:52;97065.80;;;12.90
69007;BMP180;56061;51.748;19.620;2023-04-01T08:54:06;97065.80;;;12.70
69007;BMP180;56061;51.748;19.620;2023-04-01T09:00:14;97071.00;;;12.60
69007;BMP180;56061;51.748;19.620;2023-04-01T09:03:13;97074.80;;;12.60
69007;BMP180;56061;51.748;19.620;2023-04-01T09:09:09;97076.20;;;12.40
69007;BMP180;56061;51.748;19.620;2023-04-01T09:27:14;97078.80;;;12.82
69007;BMP180;56061;51.748;19.620;2023-04-01T09:33:31;97081.60;;;13.00
69007;BMP180;56061;51.748;19.620;2023-04-01T09:36:18;97089.60;;;12.90
69007;BMP180;56061;51.748;19.620;2023-04-01T09:38:59;97087.40;;;12.70
69007;BMP180;56061;51.748;19.620;2023-04-01T09:41:32;97086.00;;;12.50
69007;BMP180;56061;51.748;19.620;2023-04-01T09:44:14;97087.60;;;12.34
69007;BMP180;56061;51.748;19.620;2023-04-01T09:53:07;97086.00;;;11.90
69007;BMP180;56061;51.748;19.620;2023-04-01T10:01:42;97088.40;;;11.70
69007;BMP180;56061;51.748;19.620;2023-04-01T10:04:30;97088.00;;;11.80
69007;BMP180;56061;51.748;19.620;2023-04-01T10:10:47;97089.40;;;12.00
69007;BMP180;56061;51.748;19.620;2023-04-01T10:13:48;97092.20;;;12.10
69007;BMP180;56061;51.748;19.620;2023-04-01T10:17:00;97091.40;;;12.20
69007;BMP180;56061;51.748;19.620;2023-04-01T10:22:50;97090.80;;;12.62
69007;BMP180;56061;51.748;19.620;2023-04-01T10:25:39;97092.00;;;12.80
69007;BMP180;56061;51.748;19.620;2023-04-01T10:34:48;97099.20;;;12.72
69007;BMP180;56061;51.748;19.620;2023-04-01T10:40:38;97096.80;;;12.74
69007;BMP180;56061;51.748;19.620;2023-04-01T11:05:26;97108.00;;;12.00
69007;BMP180;56061;51.748;19.620;2023-04-01T11:20:35;97121.80;;;12.02
69007;BMP180;56061;51.748;19.620;2023-04-01T11:26:09;97121.60;;;12.10
69007;BMP180;56061;51.748;19.620;2023-04-01T11:29:12;97120.60;;;12.10
69007;BMP180;56061;51.748;19.620;2023-04-01T11:35:07;97121.20;;;12.20
69007;BMP180;56061;51.748;19.620;2023-04-01T11:37:52;97134.00;;;12.10
69007;BMP180;56061;51.748;19.620;2023-04-01T11:40:33;97139.20;;;12.00
69007;BMP180;56061;51.748;19.620;2023-04-01T11:49:49;97135.80;;;11.54
69007;BMP180;56061;51.748;19.620;2023-04-01T11:52:26;97140.80;;;11.40
69007;BMP180;56061;51.748;19.620;2023-04-01T11:55:41;97143.00;;;11.38
69007;BMP180;56061;51.748;19.620;2023-04-01T11:58:46;97143.00;;;11.30
69007;BMP180;56061;51.748;19.620;2023-04-01T12:01:33;97142.00;;;11.40
69007;BMP180;56061;51.748;19.620;2023-04-01T12:07:51;97150.60;;;11.66
69007;BMP180;56061;51.748;19.620;2023-04-01T12:13:19;97152.80;;;11.80
69007;BMP180;56061;51.748;19.620;2023-04-01T12:16:11;97144.40;;;11.80
69007;BMP180;56061;51.748;19.620;2023-04-01T12:18:59;97149.00;;;11.92
69007;BMP180;56061;51.748;19.620;2023-04-01T12:21:42;97156.80;;;11.92
69007;BMP180;56061;51.748;19.620;2023-04-01T12:24:35;97154.80;;;11.80
69007;BMP180;56061;51.748;19.620;2023-04-01T12:27:29;97154.80;;;11.60
69007;BMP180;56061;51.748;19.620;2023-04-01T12:30:37;97158.00;;;11.50
69007;BMP180;56061;51.748;19.620;2023-04-01T12:33:32;97162.00;;;11.40
69007;BMP180;56061;51.748;19.620;2023-04-01T12:36:32;97167.60;;;11.30
69007;BMP180;56061;51.748;19.620;2023-04-01T12:39:37;97167.40;;;11.10
69007;BMP180;56061;51.748;19.620;2023-04-01T12:43:05;97167.00;;;11.10
69007;BMP180;56061;51.748;19.620;2023-04-01T12:45:57;97171.80;;;11.22
69007;BMP180;56061;51.748;19.620;2023-04-01T12:54:49;97175.00;;;11.30
69007;BMP180;56061;51.748;19.620;2023-04-01T12:57:59;97182.00;;;11.20
69007;BMP180;56061;51.748;19.620;2023-04-01T13:01:09;97188.80;;;11.20
69007;BMP180;56061;51.748;19.620;2023-04-01T13:07:07;97188.80;;;11.10
69007;BMP180;56061;51.748;19.620;2023-04-01T13:09:52;97192.20;;;11.10
69007;BMP180;56061;51.748;19.620;2023-04-01T13:12:36;97191.20;;;11.20
69007;BMP180;56061;51.748;19.620;2023-04-01T13:15:30;97197.00;;;11.30
69007;BMP180;56061;51.748;19.620;2023-04-01T13:22:03;97201.40;;;11.40
69007;BMP180;56061;51.748;19.620;2023-04-01T13:27:41;97207.80;;;11.40
69007;BMP180;56061;51.748;19.620;2023-04-01T13:30:34;97209.20;;;11.40
69007;BMP180;56061;51.748;19.620;2023-04-01T13:33:30;97213.20;;;11.50
69007;BMP180;56061;51.748;19.620;2023-04-01T13:36:46;97214.20;;;11.60
69007;BMP180;56061;51.748;19.620;2023-04-01T13:39:31;97219.20;;;11.50
69007;BMP180;56061;51.748;19.620;2023-04-01T13:42:25;97227.00;;;11.30
69007;BMP180;56061;51.748;19.620;2023-04-01T13:45:19;97237.20;;;11.10
69007;BMP180;56061;51.748;19.620;2023-04-01T13:48:26;97239.40;;;11.00
69007;BMP180;56061;51.748;19.620;2023-04-01T13:54:20;97240.00;;;10.74
69007;BMP180;56061;51.748;19.620;2023-04-01T13:57:15;97243.60;;;10.70
69007;BMP180;56061;51.748;19.620;2023-04-01T14:06:11;97255.00;;;10.50
69007;BMP180;56061;51.748;19.620;2023-04-01T14:09:20;97264.20;;;10.54
69007;BMP180;56061;51.748;19.620;2023-04-01T14:12:18;97265.00;;;10.50
69007;BMP180;56061;51.748;19.620;2023-04-01T14:24:03;97277.00;;;10.40
69007;BMP180;56061;51.748;19.620;2023-04-01T14:30:14;97285.80;;;10.20
69007;BMP180;56061;51.748;19.620;2023-04-01T14:33:12;97285.40;;;10.08
69007;BMP180;56061;51.748;19.620;2023-04-01T14:38:47;97287.40;;;10.00
69007;BMP180;56061;51.748;19.620;2023-04-01T14:41:36;97292.40;;;10.08
69007;BMP180;56061;51.748;19.620;2023-04-01T14:47:34;97307.20;;;9.90
69007;BMP180;56061;51.748;19.620;2023-04-01T14:50:29;97309.40;;;9.86
69007;BMP180;56061;51.748;19.620;2023-04-01T14:53:28;97312.00;;;9.80
69007;BMP180;56061;51.748;19.620;2023-04-01T14:56:08;97318.20;;;9.76
69007;BMP180;56061;51.748;19.620;2023-04-01T14:58:47;97324.60;;;9.70
69007;BMP180;56061;51.748;19.620;2023-04-01T15:01:45;97326.00;;;9.68
69007;BMP180;56061;51.748;19.620;2023-04-01T15:11:01;97341.60;;;9.60
69007;BMP180;56061;51.748;19.620;2023-04-01T15:14:01;97339.80;;;9.60
69007;BMP180;56061;51.748;19.620;2023-04-01T15:28:25;97363.80;;;9.60
69007;BMP180;56061;51.748;19.620;2023-04-01T15:31:20;97374.60;;;9.50
69007;BMP180;56061;51.748;19.620;2023-04-01T15:39:58;97386.80;;;9.20
69007;BMP180;56061;51.748;19.620;2023-04-01T15:45:47;97391.60;;;9.10
69007;BMP180;56061;51.748;19.620;2023-04-01T15:54:27;97399.40;;;8.70
69007;BMP180;56061;51.748;19.620;2023-04-01T16:00:23;97411.60;;;8.70
69007;BMP180;56061;51.748;19.620;2023-04-01T16:09:35;97439.40;;;8.50
69007;BMP180;56061;51.748;19.620;2023-04-01T16:12:41;97439.20;;;8.40
69007;BMP180;56061;51.748;19.620;2023-04-01T16:15:37;97445.20;;;8.30
69007;BMP180;56061;51.748;19.620;2023-04-01T16:18:54;97452.00;;;8.30
69007;BMP180;56061;51.748;19.620;2023-04-01T16:21:50;97457.00;;;8.30
69007;BMP180;56061;51.748;19.620;2023-04-01T16:24:45;97457.40;;;8.30
69007;BMP180;56061;51.748;19.620;2023-04-01T16:27:40;97458.60;;;8.30
69007;BMP180;56061;51.748;19.620;2023-04-01T16:30:35;97464.80;;;8.30
69007;BMP180;56061;51.748;19.620;2023-04-01T16:33:14;97466.60;;;8.30
69007;BMP180;56061;51.748;19.620;2023-04-01T16:35:58;97474.40;;;8.30
69007;BMP180;56061;51.748;19.620;2023-04-01T16:41:17;97484.40;;;8.20
69007;BMP180;56061;51.748;19.620;2023-04-01T16:54:53;97508.20;;;8.20
69007;BMP180;56061;51.748;19.620;2023-04-01T16:57:35;97512.20;;;8.20
69007;BMP180;56061;51.748;19.620;2023-04-01T17:00:27;97516.40;;;8.20
69007;BMP180;56061;51.748;19.620;2023-04-01T17:03:15;97522.60;;;8.20
69007;BMP180;56061;51.748;19.620;2023-04-01T17:10:06;97522.00;;;8.20
69007;BMP180;56061;51.748;19.620;2023-04-01T17:13:10;97528.60;;;8.20
69007;BMP180;56061;51.748;19.620;2023-04-01T17:18:53;97531.60;;;8.10
69007;BMP180;56061;51.748;19.620;2023-04-01T17:22:13;97538.20;;;8.10
69007;BMP180;56061;51.748;19.620;2023-04-01T17:25:12;97539.80;;;8.10
69007;BMP180;56061;51.748;19.620;2023-04-01T17:28:08;97554.80;;;8.10
69007;BMP180;56061;51.748;19.620;2023-04-01T17:31:14;97554.80;;;8.10
69007;BMP180;56061;51.748;19.620;2023-04-01T17:42:39;97571.20;;;8.00
69007;BMP180;56061;51.748;19.620;2023-04-01T17:45:24;97575.20;;;8.00
69007;BMP180;56061;51.748;19.620;2023-04-01T17:48:24;97577.60;;;7.98
69007;BMP180;56061;51.748;19.620;2023-04-01T17:54:15;97585.00;;;8.00
69007;BMP180;56061;51.748;19.620;2023-04-01T17:57:25;97590.60;;;8.00
69007;BMP180;56061;51.748;19.620;2023-04-01T18:00:12;97601.40;;;8.00
69007;BMP180;56061;51.748;19.620;2023-04-01T18:03:43;97603.60;;;7.98
69007;BMP180;56061;51.748;19.620;2023-04-01T18:06:29;97611.40;;;7.94
69007;BMP180;56061;51.748;19.620;2023-04-01T18:12:25;97611.80;;;7.90
69007;BMP180;56061;51.748;19.620;2023-04-01T18:18:01;97619.20;;;7.90
69007;BMP180;56061;51.748;19.620;2023-04-01T18:20:47;97627.80;;;7.90
69007;BMP180;56061;51.748;19.620;2023-04-01T18:23:30;97628.80;;;7.90
69007;BMP180;56061;51.748;19.620;2023-04-01T18:26:10;97638.20;;;7.90
69007;BMP180;56061;51.748;19.620;2023-04-01T18:28:58;97638.80;;;7.90
69007;BMP180;56061;51.748;19.620;2023-04-01T18:32:17;97645.00;;;7.90
69007;BMP180;56061;51.748;19.620;2023-04-01T18:38:13;97651.60;;;7.90
69007;BMP180;56061;51.748;19.620;2023-04-01T18:43:31;97661.40;;;7.90
69007;BMP180;56061;51.748;19.620;2023-04-01T18:52:07;97671.20;;;7.80
69007;BMP180;56061;51.748;19.620;2023-04-01T18:54:51;97674.80;;;7.80
69007;BMP180;56061;51.748;19.620;2023-04-01T18:57:20;97682.60;;;7.70
69007;BMP180;56061;51.748;19.620;2023-04-01T18:59:57;97686.80;;;7.70
69007;BMP180;56061;51.748;19.620;2023-04-01T19:02:35;97689.80;;;7.68
69007;BMP180;56061;51.748;19.620;2023-04-01T19:05:19;97694.40;;;7.68
69007;BMP180;56061;51.748;19.620;2023-04-01T19:07:53;97698.00;;;7.60
69007;BMP180;56061;51.748;19.620;2023-04-01T19:13:32;97705.60;;;7.70
69007;BMP180;56061;51.748;19.620;2023-04-01T19:16:36;97705.80;;;7.70
69007;BMP180;56061;51.748;19.620;2023-04-01T19:19:27;97712.60;;;7.60
69007;BMP180;56061;51.748;19.620;2023-04-01T19:22:13;97713.60;;;7.60
69007;BMP180;56061;51.748;19.620;2023-04-01T19:25:20;97718.00;;;7.60
69007;BMP180;56061;51.748;19.620;2023-04-01T19:27:53;97715.40;;;7.60
69007;BMP180;56061;51.748;19.620;2023-04-01T19:30:48;97725.00;;;7.60
69007;BMP180;56061;51.748;19.620;2023-04-01T19:33:52;97727.40;;;7.60
69007;BMP180;56061;51.748;19.620;2023-04-01T19:36:40;97732.40;;;7.50
69007;BMP180;56061;51.748;19.620;2023-04-01T19:43:02;97747.00;;;7.50
69007;BMP180;56061;51.748;19.620;2023-04-01T19:45:53;97749.60;;;7.50
69007;BMP180;56061;51.748;19.620;2023-04-01T19:48:54;97745.80;;;7.40
69007;BMP180;56061;51.748;19.620;2023-04-01T19:52:00;97749.40;;;7.40
69007;BMP180;56061;51.748;19.620;2023-04-01T19:54:52;97753.00;;;7.40
69007;BMP180;56061;51.748;19.620;2023-04-01T20:00:31;97756.60;;;7.40
69007;BMP180;56061;51.748;19.620;2023-04-01T20:14:46;97774.20;;;7.40
69007;BMP180;56061;51.748;19.620;2023-04-01T20:17:20;97777.60;;;7.38
69007;BMP180;56061;51.748;19.620;2023-04-01T20:25:23;97780.20;;;7.40
69007;BMP180;56061;51.748;19.620;2023-04-01T20:28:11;97780.40;;;7.40
69007;BMP180;56061;51.748;19.620;2023-04-01T20:34:12;97788.60;;;7.34
69007;BMP180;56061;51.748;19.620;2023-04-01T20:45:57;97803.40;;;7.18
69007;BMP180;56061;51.748;19.620;2023-04-01T20:49:01;97808.20;;;7.10
69007;BMP180;56061;51.748;19.620;2023-04-01T20:51:38;97814.00;;;7.10
69007;BMP180;56061;51.748;19.620;2023-04-01T20:57:13;97815.20;;;7.02
69007;BMP180;56061;51.748;19.620;2023-04-01T21:00:11;97816.60;;;7.00
69007;BMP180;56061;51.748;19.620;2023-04-01T21:05:59;97819.40;;;7.00